createdAt,value
2023-01-26T05:46:01.227Z,9.00
2023-01-26T05:48:33.580Z,9.93
2023-01-26T05:51:06.590Z,10.55
2023-01-26T05:53:40.985Z,9.20
2023-01-26T05:56:14.057Z,8.77
2023-01-26T05:58:50.894Z,8.02
2023-01-26T06:01:23.611Z,7.50
2023-01-26T06:04:03.004Z,8.75
2023-01-26T06:06:42.347Z,11.13
2023-01-26T06:09:27.904Z,11.10
2023-01-26T06:12:40.075Z,10.73
2023-01-26T06:15:37.979Z,11.73
2023-01-26T06:18:10.423Z,9.82
2023-01-26T06:20:44.387Z,9.05
2023-01-26T06:23:16.865Z,8.90
2023-01-26T06:25:52.237Z,10.02
2023-01-26T06:28:24.504Z,9.27
2023-01-26T06:31:01.819Z,8.30
2023-01-26T06:33:36.862Z,8.57
2023-01-26T06:36:12.045Z,8.05
2023-01-26T06:38:49.451Z,8.07
2023-01-26T06:41:22.038Z,9.15
2023-01-26T06:43:55.053Z,7.95
2023-01-26T06:46:27.276Z,10.25
2023-01-26T06:49:02.741Z,15.77
2023-01-26T06:51:46.546Z,8.77
2023-01-26T06:54:18.883Z,9.98
2023-01-26T06:57:26.925Z,9.38
2023-01-26T07:00:13.209Z,10.70
2023-01-26T07:03:03.791Z,12.45
2023-01-26T07:05:35.945Z,12.93
2023-01-26T07:08:08.806Z,14.95
2023-01-26T07:10:41.119Z,13.10
2023-01-26T07:13:13.487Z,13.07
2023-01-26T07:15:45.461Z,10.27
2023-01-26T07:18:17.712Z,9.75
2023-01-26T07:20:49.715Z,10.25
2023-01-26T07:23:21.883Z,19.42
2023-01-26T07:25:53.892Z,7.78
2023-01-26T07:28:26.819Z,7.03
2023-01-26T07:30:58.964Z,7.78
2023-01-26T07:33:32.838Z,7.15
2023-01-26T07:36:05.272Z,7.85
2023-01-26T07:38:37.334Z,7.93
2023-01-26T07:41:12.239Z,7.40
2023-01-26T15:46:33.369Z,16.98
2023-01-26T15:49:05.304Z,17.55
2023-01-26T15:51:37.999Z,19.40
2023-01-26T15:54:11.389Z,18.92
2023-01-26T15:56:43.443Z,27.38
2023-01-26T15:59:15.381Z,19.92
2023-01-26T16:01:47.477Z,19.35
2023-01-26T16:04:19.797Z,18.27
2023-01-26T16:06:51.818Z,17.30
2023-01-26T16:09:23.936Z,15.65
2023-01-26T16:11:55.963Z,17.80
2023-01-26T16:14:28.016Z,17.63
2023-01-26T16:17:00.046Z,17.00
2023-01-26T16:19:35.630Z,16.83
2023-01-26T16:22:10.977Z,16.45
2023-01-26T16:24:42.891Z,16.73
2023-01-26T16:27:15.494Z,17.73
2023-01-26T16:29:47.428Z,16.70
2023-01-26T16:32:29.206Z,16.45
2023-01-26T16:35:01.811Z,17.63
2023-01-26T16:37:33.766Z,17.98
2023-01-26T16:40:06.825Z,17.33
2023-01-26T16:42:44.981Z,19.40
2023-01-26T16:45:19.588Z,17.73
2023-01-26T16:47:56.860Z,18.92
2023-01-26T16:50:30.719Z,19.48
2023-01-26T16:53:16.887Z,18.25
2023-01-26T16:55:48.999Z,17.65
2023-01-26T16:58:22.091Z,18.20
2023-01-26T17:00:55.640Z,17.73
2023-01-26T17:03:27.700Z,18.35
2023-01-26T17:06:00.002Z,18.38
2023-01-26T17:08:32.029Z,18.63
2023-01-26T17:11:05.069Z,17.13
2023-01-26T17:13:37.094Z,18.38
2023-01-26T17:16:14.853Z,17.13
2023-01-26T17:18:48.689Z,18.98
2023-01-26T17:21:21.214Z,18.23
2023-01-26T17:23:55.852Z,19.83
2023-01-26T17:26:27.998Z,18.17
2023-01-26T17:29:00.093Z,18.27
2023-01-26T17:31:32.101Z,17.85
2023-01-26T17:34:04.754Z,19.27
2023-01-26T17:36:36.805Z,19.00
2023-01-26T17:39:10.218Z,18.02
2023-01-26T17:44:15.355Z,19.67
2023-01-26T17:46:48.276Z,20.08
2023-01-26T17:49:21.761Z,18.05
2023-01-26T17:54:25.749Z,18.27
2023-01-26T17:56:58.383Z,19.25
2023-01-26T17:59:30.418Z,17.77
2023-01-26T18:02:02.953Z,18.88
2023-01-26T18:04:35.220Z,18.53
2023-01-26T18:07:07.557Z,17.02
2023-01-26T18:09:39.552Z,17.58
2023-01-26T18:12:11.622Z,18.85
2023-01-26T18:14:43.644Z,20.23
2023-01-26T18:17:15.869Z,18.25
2023-01-26T18:19:47.850Z,19.23
2023-01-26T18:22:19.821Z,18.85
2023-01-26T18:24:53.082Z,18.98
2023-01-26T18:27:25.534Z,20.52
2023-01-26T18:29:57.830Z,18.88
2023-01-26T18:32:30.214Z,20.38
2023-01-26T18:35:02.365Z,19.27
2023-01-26T18:37:34.516Z,21.15
2023-01-26T18:40:08.416Z,20.40
2023-01-26T18:42:41.107Z,19.38
2023-01-26T18:45:13.565Z,19.85
2023-01-26T18:47:45.697Z,18.13
2023-01-26T18:50:18.060Z,19.00
2023-01-26T18:52:51.159Z,20.33
2023-01-26T18:55:23.626Z,19.13
2023-01-26T18:57:55.838Z,18.92
2023-01-26T19:00:27.810Z,18.90
2023-01-26T19:03:00.334Z,19.42
2023-01-26T19:05:32.319Z,18.07
2023-01-26T19:08:10.393Z,19.92
2023-01-26T19:10:42.375Z,18.92
2023-01-26T19:13:14.450Z,20.25
2023-01-26T19:15:48.116Z,17.98
2023-01-26T19:18:20.667Z,19.83
2023-01-26T19:21:00.484Z,17.65
2023-01-26T19:23:33.189Z,19.00
2023-01-26T19:26:17.556Z,17.75
2023-01-26T19:28:51.113Z,16.67
2023-01-26T19:33:59.025Z,19.48
2023-01-26T19:36:33.746Z,18.83
2023-01-26T19:39:11.585Z,20.58
2023-01-26T19:41:46.106Z,20.17
2023-01-26T19:44:18.187Z,20.20
2023-01-26T19:46:53.854Z,21.42
2023-01-26T19:49:26.214Z,20.23
2023-01-26T19:51:58.574Z,19.73
2023-01-26T19:54:30.798Z,19.55
2023-01-26T19:57:02.835Z,18.60
2023-01-26T19:59:35.407Z,19.30
2023-01-26T20:02:10.230Z,19.13
2023-01-26T20:04:42.289Z,18.65
2023-01-26T20:07:14.238Z,18.08
2023-01-26T20:09:46.641Z,18.23
2023-01-26T20:12:20.537Z,19.80
2023-01-26T20:14:53.617Z,18.45
2023-01-26T20:17:25.571Z,19.90
2023-01-26T20:19:57.579Z,19.90
2023-01-26T20:22:33.639Z,20.35
2023-01-26T20:25:06.665Z,20.48
2023-01-26T20:27:39.111Z,19.50
2023-01-26T20:30:12.089Z,18.10
2023-01-26T20:32:44.436Z,18.83
2023-01-26T20:35:16.373Z,16.70
2023-01-26T20:37:48.484Z,18.50
2023-01-26T20:40:20.458Z,19.15
2023-01-26T20:42:53.115Z,17.90
2023-01-26T20:45:25.244Z,19.65
2023-01-26T20:47:58.239Z,18.90
